Alpena County Regional Airport
KAPN : now visible

Airfield :











YOU CAN JOIN US ON...

 
LOGIN :

Register | Disclaimer

   EN    FR    IT 

 









Legend :    VFR   Marginal VFR   IFR   Intensive IFR   Very Intensive IFR
Visi :
Ceiling :
>= 8 km
>= 3000ft
5 to 8 km
1000 to 3000 ft
1500m to 5 km
500 to 1000 ft
800 to 1500m
200 to 500 ft
< 800m
< 200 ft
Symbols :   Thunderstorms  Fog  Heavy snow  Heavy precipitations  Wind > 20 kt






- Airport Elevation : 690 ft
- IATA code : APN


KAPN - Alpena County Regional

CURRENT METAR :
  • 281716Z AUTO 06007KT 10SM SCT008 OVC060 05/03 A2992 RMK AO2 T00500033

EXPIRED METARs :
  • 281708Z AUTO 06009KT 10SM BKN008 OVC060 05/03 A2991 RMK AO2 T00500033
  • 281642Z AUTO 06007KT 10SM BKN008 OVC060 06/04 A2992 RMK AO2 RAE35 P0000 T00560044
  • 281613Z AUTO 04008KT 10SM -RA FEW007 OVC060 06/04 A2992 RMK AO2 P0000 T00560044
  • 281554Z AUTO 04006KT 10SM -RA BKN065 OVC075 05/04 A2992 RMK AO2 RAE25B44 SLP138 P0001 T00500039
  • 281454Z AUTO 05004KT 8SM -RA OVC070 03/03 A2993 RMK AO2 SLP143 P0002 60006 T00330028 53002

TAF KAPN
Valid from the 28 at 17:00 until the 29 at 12:00 UTC


281652Z 2817/2912 07005KT P6SM -RA SCT008 OVC060
TEMPO 2817/2819 BKN008
FM281900 07007KT P6SM VCSH SCT008 OVC050
FM282200 07009KT P6SM VCSH OVC030
FM290100 09011KT P6SM SHRA OVC014
FM290400 10013G21KT 3SM -SHRA OVC007
FM290700 10013G21KT 2SM -SHRA OVC004



MET'MAP, your aeronautical weather chart ! - Copyright ORBIFLY December 2007 - Disclaimer

ORBIFLY MET'MAP TEAM :

Programming & Development : Alexandra Zaïnal
Concept & original design : Baudouin d'Aumeries
Assistance for programming : Marc-Olivier Méhu
Technical & hardware support : Manuel Goepfert

Contact : metmap@orbifly.com




SOURCES & CREDITS :

   NOAA       Earth
Advisory